< < Back
Terminal Aerodrome Forecast


Current Version              Previous Versions:   1  2  3  4  5  6  7  8  9  

Terminal Aerodrome Forecast

384
FTUS42 KGSP 042359 AAB
TAFAND
TAF AMD
KAND 042359Z 0500/0524 22009KT P6SM BKN060
     FM050500 21010KT P6SM BKN015
     FM050700 21009KT 5SM BR BKN008
     FM051200 23010KT 3SM -RA BR OVC008
     FM051500 25005KT 4SM -RA OVC015
     FM052200 30007KT P6SM OVC015=



Latest METAR

160
SAUS70 KWBC 050000 RRC
MTRAND
METAR KAND 042356Z AUTO 20014KT 10SM CLR 21/15 A2990 RMK AO2 SLP119
T02060150 10222 20156 55012


USA.gov is the U.S. government's official web portal to all federal, state and local government web resources and services.